KGIF/GIF METAR and TAF weather

Enter ICAO airport designator
Station Type Date Time Source
KGIF METAR 2022/06/27 17:53 UTC NOAA

KGIF 271753Z AUTO 23003KT 10SM CLR 32/21 A3003 RMK AO2 SLP165 60000 T03220211 10328 20250 58013


Station Type Date Time Source
KGIF Decoded METAR 2022/06/27 17:53 UTC NOAA

WINTER HAVENS GILBERT AIRPORT , FL, United States (KGIF) 28-04N 81-45W 43M
Jun 27, 2022 - 01:53 PM EDT / 2022.06.27 1753 UTC
Wind: from the SW (230 degrees) at 3 MPH (3 KT):0
Visibility: 10 mile(s):0
Sky conditions: clear
Temperature: 90.0 F (32.2 C)
Heat index: 95.5 F (35.3 C):1
Dew Point: 70.0 F (21.1 C)
Relative Humidity: 52%
Pressure (altimeter): 30.03 in. Hg (1016 hPa)
Pressure tendency: 0.04 inches (1.3 hPa) lower than three hours ago
ob: KGIF 271753Z AUTO 23003KT 10SM CLR 32/21 A3003 RMK AO2 SLP165 60000 T03220211 10328 20250 58013
cycle: 18

Station Type Date Time Source
KGIF TAF UTC NOAA

Error!

Example: see airport list